sensor_id;sensor_type;location;lat;lon;timestamp;P1;durP1;ratioP1;P2;durP2;ratioP2
62654;SDS011;48717;55.556;37.816;2022-11-15T00:00:08;1.60;;;1.00;;
62654;SDS011;48717;55.556;37.816;2022-11-15T00:02:59;2.88;;;1.05;;
62654;SDS011;48717;55.556;37.816;2022-11-15T00:05:47;2.72;;;1.30;;
62654;SDS011;48717;55.556;37.816;2022-11-15T00:08:36;2.65;;;0.98;;
62654;SDS011;48717;55.556;37.816;2022-11-15T00:11:26;5.45;;;1.33;;
62654;SDS011;48717;55.556;37.816;2022-11-15T00:14:24;3.42;;;1.20;;
62654;SDS011;48717;55.556;37.816;2022-11-15T00:17:15;1.60;;;1.02;;
62654;SDS011;48717;55.556;37.816;2022-11-15T00:20:01;4.18;;;1.15;;
62654;SDS011;48717;55.556;37.816;2022-11-15T00:22:47;2.00;;;1.48;;
62654;SDS011;48717;55.556;37.816;2022-11-15T00:25:41;2.60;;;1.30;;
62654;SDS011;48717;55.556;37.816;2022-11-15T00:28:27;2.95;;;1.30;;
62654;SDS011;48717;55.556;37.816;2022-11-15T00:31:13;3.30;;;1.63;;
62654;SDS011;48717;55.556;37.816;2022-11-15T00:34:00;5.85;;;1.63;;
62654;SDS011;48717;55.556;37.816;2022-11-15T00:36:47;3.58;;;1.50;;
62654;SDS011;48717;55.556;37.816;2022-11-15T00:39:36;3.22;;;1.35;;
62654;SDS011;48717;55.556;37.816;2022-11-15T00:42:22;6.68;;;1.60;;
62654;SDS011;48717;55.556;37.816;2022-11-15T00:45:08;2.15;;;1.50;;
62654;SDS011;48717;55.556;37.816;2022-11-15T00:47:54;4.55;;;1.52;;
62654;SDS011;48717;55.556;37.816;2022-11-15T00:50:40;2.90;;;1.95;;
62654;SDS011;48717;55.556;37.816;2022-11-15T00:53:26;2.53;;;1.75;;
62654;SDS011;48717;55.556;37.816;2022-11-15T00:56:12;3.25;;;1.50;;
62654;SDS011;48717;55.556;37.816;2022-11-15T00:58:58;4.20;;;1.77;;
62654;SDS011;48717;55.556;37.816;2022-11-15T01:01:44;4.10;;;1.60;;
62654;SDS011;48717;55.556;37.816;2022-11-15T01:04:33;4.13;;;2.00;;
62654;SDS011;48717;55.556;37.816;2022-11-15T01:07:19;2.50;;;2.13;;
62654;SDS011;48717;55.556;37.816;2022-11-15T01:10:04;7.55;;;1.65;;
62654;SDS011;48717;55.556;37.816;2022-11-15T01:12:50;3.97;;;1.50;;
62654;SDS011;48717;55.556;37.816;2022-11-15T01:15:40;7.15;;;1.80;;
62654;SDS011;48717;55.556;37.816;2022-11-15T01:18:26;5.50;;;2.42;;
62654;SDS011;48717;55.556;37.816;2022-11-15T01:21:13;3.20;;;1.80;;
62654;SDS011;48717;55.556;37.816;2022-11-15T01:24:01;5.28;;;1.80;;
62654;SDS011;48717;55.556;37.816;2022-11-15T01:26:47;3.00;;;1.50;;
62654;SDS011;48717;55.556;37.816;2022-11-15T01:29:33;1.83;;;1.30;;
62654;SDS011;48717;55.556;37.816;2022-11-15T01:32:18;5.85;;;1.83;;
62654;SDS011;48717;55.556;37.816;2022-11-15T01:35:04;4.18;;;2.00;;
62654;SDS011;48717;55.556;37.816;2022-11-15T01:37:50;2.72;;;1.40;;
62654;SDS011;48717;55.556;37.816;2022-11-15T01:40:35;10.07;;;1.98;;
62654;SDS011;48717;55.556;37.816;2022-11-15T01:43:26;22.58;;;9.80;;
62654;SDS011;48717;55.556;37.816;2022-11-15T01:46:27;6.97;;;3.15;;
62654;SDS011;48717;55.556;37.816;2022-11-15T01:52:10;3.10;;;1.60;;
62654;SDS011;48717;55.556;37.816;2022-11-15T01:57:56;2.08;;;1.17;;
62654;SDS011;48717;55.556;37.816;2022-11-15T02:00:45;3.95;;;1.40;;
62654;SDS011;48717;55.556;37.816;2022-11-15T02:06:52;4.40;;;1.27;;
62654;SDS011;48717;55.556;37.816;2022-11-15T02:09:38;2.70;;;1.40;;
62654;SDS011;48717;55.556;37.816;2022-11-15T02:12:25;6.85;;;1.95;;
62654;SDS011;48717;55.556;37.816;2022-11-15T02:15:11;6.80;;;1.70;;
62654;SDS011;48717;55.556;37.816;2022-11-15T02:21:05;4.22;;;1.38;;
62654;SDS011;48717;55.556;37.816;2022-11-15T02:39:50;4.75;;;1.52;;
62654;SDS011;48717;55.556;37.816;2022-11-15T02:42:40;1.23;;;0.95;;
62654;SDS011;48717;55.556;37.816;2022-11-15T02:45:55;3.85;;;1.17;;
62654;SDS011;48717;55.556;37.816;2022-11-15T02:48:50;5.75;;;1.10;;
62654;SDS011;48717;55.556;37.816;2022-11-15T02:51:36;3.45;;;1.17;;
62654;SDS011;48717;55.556;37.816;2022-11-15T02:54:23;7.47;;;0.90;;
62654;SDS011;48717;55.556;37.816;2022-11-15T02:57:12;5.30;;;1.50;;
62654;SDS011;48717;55.556;37.816;2022-11-15T03:06:08;4.30;;;1.20;;
62654;SDS011;48717;55.556;37.816;2022-11-15T03:12:15;7.70;;;1.42;;
62654;SDS011;48717;55.556;37.816;2022-11-15T03:15:15;2.53;;;1.20;;
62654;SDS011;48717;55.556;37.816;2022-11-15T03:18:19;8.73;;;1.50;;
62654;SDS011;48717;55.556;37.816;2022-11-15T03:21:10;2.78;;;1.27;;
62654;SDS011;48717;55.556;37.816;2022-11-15T03:23:58;9.43;;;1.48;;
62654;SDS011;48717;55.556;37.816;2022-11-15T03:26:49;4.80;;;1.30;;
62654;SDS011;48717;55.556;37.816;2022-11-15T03:29:38;10.20;;;1.60;;
62654;SDS011;48717;55.556;37.816;2022-11-15T03:32:30;4.35;;;1.60;;
62654;SDS011;48717;55.556;37.816;2022-11-15T03:35:23;2.67;;;1.33;;
62654;SDS011;48717;55.556;37.816;2022-11-15T03:38:16;4.28;;;1.40;;
62654;SDS011;48717;55.556;37.816;2022-11-15T03:41:09;5.22;;;1.38;;
62654;SDS011;48717;55.556;37.816;2022-11-15T03:44:13;6.28;;;1.60;;
62654;SDS011;48717;55.556;37.816;2022-11-15T03:50:04;6.20;;;1.35;;
62654;SDS011;48717;55.556;37.816;2022-11-15T03:52:55;5.03;;;1.35;;
62654;SDS011;48717;55.556;37.816;2022-11-15T03:55:42;6.93;;;1.80;;
62654;SDS011;48717;55.556;37.816;2022-11-15T03:58:28;4.45;;;1.30;;
62654;SDS011;48717;55.556;37.816;2022-11-15T04:01:13;7.05;;;1.58;;
62654;SDS011;48717;55.556;37.816;2022-11-15T04:03:59;11.98;;;1.58;;
62654;SDS011;48717;55.556;37.816;2022-11-15T04:06:45;8.23;;;1.65;;
62654;SDS011;48717;55.556;37.816;2022-11-15T04:09:30;3.10;;;1.58;;
62654;SDS011;48717;55.556;37.816;2022-11-15T04:12:16;3.72;;;1.50;;
62654;SDS011;48717;55.556;37.816;2022-11-15T04:15:17;4.85;;;1.65;;
62654;SDS011;48717;55.556;37.816;2022-11-15T04:18:04;5.05;;;1.42;;
62654;SDS011;48717;55.556;37.816;2022-11-15T04:20:50;4.53;;;1.38;;
62654;SDS011;48717;55.556;37.816;2022-11-15T04:23:54;2.85;;;2.00;;
62654;SDS011;48717;55.556;37.816;2022-11-15T04:26:58;3.13;;;1.40;;
62654;SDS011;48717;55.556;37.816;2022-11-15T04:29:45;3.92;;;1.30;;
62654;SDS011;48717;55.556;37.816;2022-11-15T04:32:30;8.88;;;1.23;;
62654;SDS011;48717;55.556;37.816;2022-11-15T04:35:16;12.30;;;1.98;;
62654;SDS011;48717;55.556;37.816;2022-11-15T04:38:03;6.10;;;1.20;;
62654;SDS011;48717;55.556;37.816;2022-11-15T04:40:50;7.38;;;1.55;;
62654;SDS011;48717;55.556;37.816;2022-11-15T04:43:36;4.90;;;1.17;;
62654;SDS011;48717;55.556;37.816;2022-11-15T04:46:22;5.35;;;1.45;;
62654;SDS011;48717;55.556;37.816;2022-11-15T04:49:08;11.27;;;1.90;;
62654;SDS011;48717;55.556;37.816;2022-11-15T04:51:54;8.48;;;1.48;;
62654;SDS011;48717;55.556;37.816;2022-11-15T04:54:39;13.75;;;1.95;;
62654;SDS011;48717;55.556;37.816;2022-11-15T04:57:28;3.40;;;1.60;;
62654;SDS011;48717;55.556;37.816;2022-11-15T05:00:16;11.82;;;1.90;;
62654;SDS011;48717;55.556;37.816;2022-11-15T05:03:02;10.57;;;1.90;;
62654;SDS011;48717;55.556;37.816;2022-11-15T05:06:06;7.38;;;1.58;;
62654;SDS011;48717;55.556;37.816;2022-11-15T05:08:52;8.38;;;1.80;;
62654;SDS011;48717;55.556;37.816;2022-11-15T05:11:38;11.63;;;1.70;;
62654;SDS011;48717;55.556;37.816;2022-11-15T05:14:24;4.53;;;1.58;;
62654;SDS011;48717;55.556;37.816;2022-11-15T05:17:10;6.97;;;1.92;;
62654;SDS011;48717;55.556;37.816;2022-11-15T05:19:56;9.07;;;1.80;;
62654;SDS011;48717;55.556;37.816;2022-11-15T05:22:41;6.15;;;2.03;;
62654;SDS011;48717;55.556;37.816;2022-11-15T05:25:27;9.13;;;1.92;;
62654;SDS011;48717;55.556;37.816;2022-11-15T05:28:13;7.93;;;1.70;;
62654;SDS011;48717;55.556;37.816;2022-11-15T05:31:08;3.63;;;1.40;;
62654;SDS011;48717;55.556;37.816;2022-11-15T05:33:58;11.73;;;1.75;;
62654;SDS011;48717;55.556;37.816;2022-11-15T05:36:46;10.80;;;1.75;;
62654;SDS011;48717;55.556;37.816;2022-11-15T05:39:32;4.15;;;1.60;;
62654;SDS011;48717;55.556;37.816;2022-11-15T05:42:17;15.50;;;1.73;;
62654;SDS011;48717;55.556;37.816;2022-11-15T05:45:04;18.35;;;2.80;;
62654;SDS011;48717;55.556;37.816;2022-11-15T05:47:53;10.63;;;1.70;;
62654;SDS011;48717;55.556;37.816;2022-11-15T05:50:42;2.95;;;1.45;;
62654;SDS011;48717;55.556;37.816;2022-11-15T05:53:31;5.93;;;2.28;;
62654;SDS011;48717;55.556;37.816;2022-11-15T05:56:17;15.25;;;2.08;;
62654;SDS011;48717;55.556;37.816;2022-11-15T05:59:03;7.40;;;2.17;;
62654;SDS011;48717;55.556;37.816;2022-11-15T06:01:49;10.50;;;2.22;;
62654;SDS011;48717;55.556;37.816;2022-11-15T06:04:34;11.80;;;2.30;;
62654;SDS011;48717;55.556;37.816;2022-11-15T06:07:20;10.80;;;2.05;;
62654;SDS011;48717;55.556;37.816;2022-11-15T06:10:06;10.63;;;2.05;;
62654;SDS011;48717;55.556;37.816;2022-11-15T06:13:03;8.93;;;2.58;;
62654;SDS011;48717;55.556;37.816;2022-11-15T06:15:50;7.88;;;1.83;;
62654;SDS011;48717;55.556;37.816;2022-11-15T06:18:35;13.73;;;2.33;;
62654;SDS011;48717;55.556;37.816;2022-11-15T06:21:22;14.52;;;2.17;;
62654;SDS011;48717;55.556;37.816;2022-11-15T06:24:08;7.28;;;2.72;;
62654;SDS011;48717;55.556;37.816;2022-11-15T06:26:54;18.88;;;5.53;;
62654;SDS011;48717;55.556;37.816;2022-11-15T06:29:40;6.05;;;2.30;;
62654;SDS011;48717;55.556;37.816;2022-11-15T06:32:25;15.05;;;3.13;;
62654;SDS011;48717;55.556;37.816;2022-11-15T06:35:11;25.38;;;2.58;;
62654;SDS011;48717;55.556;37.816;2022-11-15T06:38:01;11.32;;;2.90;;
62654;SDS011;48717;55.556;37.816;2022-11-15T06:40:48;11.45;;;2.20;;
62654;SDS011;48717;55.556;37.816;2022-11-15T06:43:34;8.32;;;2.30;;
62654;SDS011;48717;55.556;37.816;2022-11-15T06:46:20;3.60;;;1.60;;
62654;SDS011;48717;55.556;37.816;2022-11-15T06:49:06;6.43;;;2.10;;
62654;SDS011;48717;55.556;37.816;2022-11-15T06:51:54;4.03;;;1.73;;
62654;SDS011;48717;55.556;37.816;2022-11-15T06:54:39;9.75;;;1.90;;
62654;SDS011;48717;55.556;37.816;2022-11-15T06:57:25;8.82;;;2.00;;
62654;SDS011;48717;55.556;37.816;2022-11-15T07:00:16;7.18;;;2.60;;
62654;SDS011;48717;55.556;37.816;2022-11-15T07:03:03;6.38;;;1.90;;
62654;SDS011;48717;55.556;37.816;2022-11-15T07:05:53;7.78;;;3.00;;
62654;SDS011;48717;55.556;37.816;2022-11-15T07:08:40;12.57;;;2.83;;
62654;SDS011;48717;55.556;37.816;2022-11-15T07:11:27;4.38;;;1.27;;
62654;SDS011;48717;55.556;37.816;2022-11-15T07:14:13;5.90;;;1.90;;
62654;SDS011;48717;55.556;37.816;2022-11-15T07:16:58;4.05;;;1.20;;
62654;SDS011;48717;55.556;37.816;2022-11-15T07:19:44;3.15;;;1.60;;
62654;SDS011;48717;55.556;37.816;2022-11-15T07:22:30;1.85;;;1.00;;
62654;SDS011;48717;55.556;37.816;2022-11-15T07:25:16;2.00;;;1.30;;
62654;SDS011;48717;55.556;37.816;2022-11-15T07:28:02;7.80;;;1.90;;
62654;SDS011;48717;55.556;37.816;2022-11-15T07:30:48;4.18;;;0.98;;
62654;SDS011;48717;55.556;37.816;2022-11-15T07:33:34;5.28;;;1.83;;
62654;SDS011;48717;55.556;37.816;2022-11-15T07:36:20;3.42;;;1.50;;
62654;SDS011;48717;55.556;37.816;2022-11-15T07:39:05;2.40;;;0.95;;
62654;SDS011;48717;55.556;37.816;2022-11-15T07:41:51;4.30;;;2.17;;
62654;SDS011;48717;55.556;37.816;2022-11-15T07:44:57;5.68;;;2.35;;
62654;SDS011;48717;55.556;37.816;2022-11-15T07:47:45;13.18;;;2.67;;
62654;SDS011;48717;55.556;37.816;2022-11-15T07:50:31;3.95;;;1.40;;
62654;SDS011;48717;55.556;37.816;2022-11-15T07:53:18;6.45;;;2.45;;
62654;SDS011;48717;55.556;37.816;2022-11-15T07:56:05;3.05;;;1.33;;
62654;SDS011;48717;55.556;37.816;2022-11-15T07:58:52;6.55;;;1.50;;
62654;SDS011;48717;55.556;37.816;2022-11-15T08:01:38;6.70;;;1.58;;
62654;SDS011;48717;55.556;37.816;2022-11-15T08:04:24;8.02;;;1.88;;
62654;SDS011;48717;55.556;37.816;2022-11-15T08:07:10;5.18;;;2.00;;
62654;SDS011;48717;55.556;37.816;2022-11-15T08:09:56;5.25;;;1.90;;
62654;SDS011;48717;55.556;37.816;2022-11-15T08:12:42;1.20;;;0.95;;
62654;SDS011;48717;55.556;37.816;2022-11-15T08:15:29;6.53;;;1.80;;
62654;SDS011;48717;55.556;37.816;2022-11-15T08:18:16;7.75;;;1.65;;
62654;SDS011;48717;55.556;37.816;2022-11-15T08:21:03;5.28;;;1.33;;
62654;SDS011;48717;55.556;37.816;2022-11-15T08:23:50;6.20;;;1.92;;
62654;SDS011;48717;55.556;37.816;2022-11-15T08:26:36;3.72;;;1.48;;
62654;SDS011;48717;55.556;37.816;2022-11-15T08:29:21;2.47;;;1.40;;
62654;SDS011;48717;55.556;37.816;2022-11-15T08:32:07;8.13;;;1.80;;
62654;SDS011;48717;55.556;37.816;2022-11-15T08:34:53;6.80;;;1.67;;
62654;SDS011;48717;55.556;37.816;2022-11-15T08:37:39;4.45;;;1.48;;
62654;SDS011;48717;55.556;37.816;2022-11-15T08:40:24;5.82;;;1.90;;
62654;SDS011;48717;55.556;37.816;2022-11-15T08:43:12;4.70;;;1.90;;
62654;SDS011;48717;55.556;37.816;2022-11-15T08:45:58;7.90;;;2.65;;
62654;SDS011;48717;55.556;37.816;2022-11-15T08:48:44;6.82;;;2.15;;
62654;SDS011;48717;55.556;37.816;2022-11-15T08:51:30;8.88;;;2.10;;
62654;SDS011;48717;55.556;37.816;2022-11-15T08:54:15;7.50;;;1.65;;
62654;SDS011;48717;55.556;37.816;2022-11-15T08:57:01;4.30;;;1.80;;
62654;SDS011;48717;55.556;37.816;2022-11-15T08:59:47;4.78;;;1.92;;
62654;SDS011;48717;55.556;37.816;2022-11-15T09:02:32;6.13;;;1.67;;
62654;SDS011;48717;55.556;37.816;2022-11-15T09:05:19;7.35;;;1.92;;
62654;SDS011;48717;55.556;37.816;2022-11-15T09:08:05;6.45;;;2.00;;
62654;SDS011;48717;55.556;37.816;2022-11-15T09:11:11;8.38;;;1.80;;
62654;SDS011;48717;55.556;37.816;2022-11-15T09:13:57;6.80;;;1.83;;
62654;SDS011;48717;55.556;37.816;2022-11-15T09:16:43;7.57;;;1.38;;
62654;SDS011;48717;55.556;37.816;2022-11-15T09:19:29;5.68;;;1.88;;
62654;SDS011;48717;55.556;37.816;2022-11-15T09:22:14;5.15;;;2.03;;
62654;SDS011;48717;55.556;37.816;2022-11-15T09:25:00;5.50;;;2.17;;
62654;SDS011;48717;55.556;37.816;2022-11-15T09:27:46;5.00;;;2.00;;
62654;SDS011;48717;55.556;37.816;2022-11-15T09:30:32;17.30;;;2.92;;
62654;SDS011;48717;55.556;37.816;2022-11-15T09:33:18;5.90;;;1.90;;
62654;SDS011;48717;55.556;37.816;2022-11-15T09:36:05;5.28;;;1.70;;
62654;SDS011;48717;55.556;37.816;2022-11-15T09:38:52;9.32;;;2.42;;
62654;SDS011;48717;55.556;37.816;2022-11-15T09:44:38;12.93;;;2.40;;
62654;SDS011;48717;55.556;37.816;2022-11-15T09:50:39;4.55;;;0.98;;
62654;SDS011;48717;55.556;37.816;2022-11-15T09:53:24;5.40;;;1.38;;
62654;SDS011;48717;55.556;37.816;2022-11-15T09:56:20;9.40;;;2.88;;
62654;SDS011;48717;55.556;37.816;2022-11-15T10:04:23;5.43;;;2.13;;
62654;SDS011;48717;55.556;37.816;2022-11-15T10:06:58;11.15;;;2.55;;
62654;SDS011;48717;55.556;37.816;2022-11-15T10:12:20;7.15;;;2.35;;
62654;SDS011;48717;55.556;37.816;2022-11-15T10:14:47;9.30;;;2.30;;
62654;SDS011;48717;55.556;37.816;2022-11-15T10:19:55;6.32;;;1.92;;
62654;SDS011;48717;55.556;37.816;2022-11-15T10:27:45;3.70;;;1.90;;
62654;SDS011;48717;55.556;37.816;2022-11-15T10:30:19;6.43;;;1.90;;
62654;SDS011;48717;55.556;37.816;2022-11-15T10:32:47;5.85;;;1.85;;
62654;SDS011;48717;55.556;37.816;2022-11-15T10:35:20;14.13;;;2.10;;
62654;SDS011;48717;55.556;37.816;2022-11-15T10:37:51;11.30;;;1.77;;
62654;SDS011;48717;55.556;37.816;2022-11-15T10:40:21;6.40;;;1.80;;
62654;SDS011;48717;55.556;37.816;2022-11-15T10:45:32;5.20;;;2.13;;
62654;SDS011;48717;55.556;37.816;2022-11-15T10:50:40;8.90;;;2.00;;
62654;SDS011;48717;55.556;37.816;2022-11-15T10:53:15;7.43;;;1.67;;
62654;SDS011;48717;55.556;37.816;2022-11-15T10:55:46;7.28;;;1.60;;
62654;SDS011;48717;55.556;37.816;2022-11-15T10:58:30;0.47;;;0.47;;
62654;SDS011;48717;55.556;37.816;2022-11-15T11:03:42;6.40;;;1.90;;
62654;SDS011;48717;55.556;37.816;2022-11-15T11:06:12;7.78;;;1.70;;
62654;SDS011;48717;55.556;37.816;2022-11-15T11:08:57;7.85;;;2.05;;
62654;SDS011;48717;55.556;37.816;2022-11-15T11:11:25;4.93;;;1.60;;
62654;SDS011;48717;55.556;37.816;2022-11-15T11:14:22;9.07;;;2.28;;
62654;SDS011;48717;55.556;37.816;2022-11-15T11:16:59;4.13;;;1.45;;
62654;SDS011;48717;55.556;37.816;2022-11-15T11:33:35;5.65;;;2.10;;
62654;SDS011;48717;55.556;37.816;2022-11-15T11:42:03;8.80;;;2.28;;
62654;SDS011;48717;55.556;37.816;2022-11-15T11:44:43;10.27;;;2.80;;
62654;SDS011;48717;55.556;37.816;2022-11-15T11:47:23;9.57;;;2.95;;
62654;SDS011;48717;55.556;37.816;2022-11-15T12:01:05;11.00;;;2.30;;
62654;SDS011;48717;55.556;37.816;2022-11-15T12:09:12;12.05;;;2.17;;
62654;SDS011;48717;55.556;37.816;2022-11-15T12:17:17;3.40;;;1.65;;
62654;SDS011;48717;55.556;37.816;2022-11-15T12:19:51;7.03;;;1.98;;
62654;SDS011;48717;55.556;37.816;2022-11-15T12:25:32;6.43;;;1.88;;
62654;SDS011;48717;55.556;37.816;2022-11-15T12:33:58;4.97;;;1.52;;
62654;SDS011;48717;55.556;37.816;2022-11-15T12:39:08;4.03;;;1.50;;
62654;SDS011;48717;55.556;37.816;2022-11-15T12:44:15;3.95;;;1.77;;
62654;SDS011;48717;55.556;37.816;2022-11-15T12:47:04;6.55;;;2.10;;
62654;SDS011;48717;55.556;37.816;2022-11-15T12:49:49;9.00;;;2.25;;
62654;SDS011;48717;55.556;37.816;2022-11-15T12:52:16;5.18;;;1.95;;
62654;SDS011;48717;55.556;37.816;2022-11-15T12:54:51;1.25;;;0.88;;
62654;SDS011;48717;55.556;37.816;2022-11-15T12:59:54;5.43;;;2.15;;
62654;SDS011;48717;55.556;37.816;2022-11-15T13:22:45;14.70;;;2.97;;
62654;SDS011;48717;55.556;37.816;2022-11-15T13:33:21;8.35;;;3.03;;
62654;SDS011;48717;55.556;37.816;2022-11-15T13:35:51;7.97;;;3.00;;
62654;SDS011;48717;55.556;37.816;2022-11-15T13:40:50;16.33;;;3.40;;
62654;SDS011;48717;55.556;37.816;2022-11-15T13:46:04;7.38;;;2.80;;
62654;SDS011;48717;55.556;37.816;2022-11-15T13:48:31;6.45;;;2.90;;
62654;SDS011;48717;55.556;37.816;2022-11-15T13:51:08;10.55;;;2.50;;
62654;SDS011;48717;55.556;37.816;2022-11-15T13:53:43;5.13;;;1.27;;
62654;SDS011;48717;55.556;37.816;2022-11-15T13:56:15;5.15;;;2.22;;
62654;SDS011;48717;55.556;37.816;2022-11-15T13:58:45;8.77;;;2.33;;
62654;SDS011;48717;55.556;37.816;2022-11-15T14:01:14;8.43;;;2.55;;
62654;SDS011;48717;55.556;37.816;2022-11-15T14:03:50;8.52;;;3.15;;
62654;SDS011;48717;55.556;37.816;2022-11-15T14:06:22;10.75;;;3.00;;
62654;SDS011;48717;55.556;37.816;2022-11-15T14:09:14;9.02;;;3.28;;
62654;SDS011;48717;55.556;37.816;2022-11-15T14:11:52;7.60;;;3.90;;
62654;SDS011;48717;55.556;37.816;2022-11-15T14:14:21;8.27;;;3.08;;
62654;SDS011;48717;55.556;37.816;2022-11-15T14:17:00;12.03;;;4.00;;
62654;SDS011;48717;55.556;37.816;2022-11-15T14:25:06;7.85;;;2.83;;
62654;SDS011;48717;55.556;37.816;2022-11-15T14:27:34;7.72;;;3.20;;
62654;SDS011;48717;55.556;37.816;2022-11-15T14:30:01;11.93;;;3.22;;
62654;SDS011;48717;55.556;37.816;2022-11-15T14:32:36;11.00;;;3.30;;
62654;SDS011;48717;55.556;37.816;2022-11-15T14:35:18;5.55;;;2.38;;
62654;SDS011;48717;55.556;37.816;2022-11-15T14:37:47;6.07;;;2.90;;
62654;SDS011;48717;55.556;37.816;2022-11-15T14:40:15;10.70;;;3.10;;
62654;SDS011;48717;55.556;37.816;2022-11-15T14:45:14;7.70;;;2.55;;
62654;SDS011;48717;55.556;37.816;2022-11-15T14:47:43;7.43;;;2.88;;
62654;SDS011;48717;55.556;37.816;2022-11-15T14:50:11;6.00;;;2.65;;
62654;SDS011;48717;55.556;37.816;2022-11-15T14:52:43;8.95;;;2.85;;
62654;SDS011;48717;55.556;37.816;2022-11-15T14:57:59;7.93;;;3.08;;
62654;SDS011;48717;55.556;37.816;2022-11-15T15:00:29;8.20;;;2.60;;
62654;SDS011;48717;55.556;37.816;2022-11-15T15:03:01;8.20;;;2.60;;
62654;SDS011;48717;55.556;37.816;2022-11-15T15:05:34;7.13;;;2.63;;
62654;SDS011;48717;55.556;37.816;2022-11-15T15:08:09;7.30;;;2.85;;
62654;SDS011;48717;55.556;37.816;2022-11-15T15:10:40;10.55;;;3.25;;
62654;SDS011;48717;55.556;37.816;2022-11-15T15:15:43;8.32;;;2.60;;
62654;SDS011;48717;55.556;37.816;2022-11-15T15:18:10;8.18;;;2.75;;
62654;SDS011;48717;55.556;37.816;2022-11-15T15:20:38;3.55;;;2.20;;
62654;SDS011;48717;55.556;37.816;2022-11-15T15:23:18;7.60;;;2.50;;
62654;SDS011;48717;55.556;37.816;2022-11-15T15:25:47;5.28;;;2.20;;
62654;SDS011;48717;55.556;37.816;2022-11-15T15:28:15;9.73;;;3.03;;
62654;SDS011;48717;55.556;37.816;2022-11-15T15:30:42;6.10;;;2.25;;
62654;SDS011;48717;55.556;37.816;2022-11-15T15:33:10;9.20;;;3.30;;
62654;SDS011;48717;55.556;37.816;2022-11-15T15:35:38;4.30;;;2.30;;
62654;SDS011;48717;55.556;37.816;2022-11-15T15:38:05;7.25;;;2.85;;
62654;SDS011;48717;55.556;37.816;2022-11-15T15:40:35;7.28;;;2.40;;
62654;SDS011;48717;55.556;37.816;2022-11-15T15:43:02;7.85;;;2.97;;
62654;SDS011;48717;55.556;37.816;2022-11-15T15:45:29;9.90;;;3.78;;
62654;SDS011;48717;55.556;37.816;2022-11-15T15:47:58;9.73;;;3.85;;
62654;SDS011;48717;55.556;37.816;2022-11-15T15:50:26;9.52;;;3.53;;
62654;SDS011;48717;55.556;37.816;2022-11-15T15:52:59;14.02;;;4.38;;
62654;SDS011;48717;55.556;37.816;2022-11-15T15:55:28;10.57;;;4.10;;
62654;SDS011;48717;55.556;37.816;2022-11-15T15:57:55;11.43;;;3.95;;
62654;SDS011;48717;55.556;37.816;2022-11-15T16:00:23;9.98;;;4.07;;
62654;SDS011;48717;55.556;37.816;2022-11-15T16:02:54;7.68;;;3.25;;
62654;SDS011;48717;55.556;37.816;2022-11-15T16:05:22;7.07;;;3.22;;
62654;SDS011;48717;55.556;37.816;2022-11-15T16:07:49;13.98;;;4.85;;
62654;SDS011;48717;55.556;37.816;2022-11-15T16:10:26;14.00;;;4.45;;
62654;SDS011;48717;55.556;37.816;2022-11-15T16:12:55;9.93;;;3.78;;
62654;SDS011;48717;55.556;37.816;2022-11-15T16:15:24;10.20;;;4.00;;
62654;SDS011;48717;55.556;37.816;2022-11-15T16:17:54;8.33;;;3.47;;
62654;SDS011;48717;55.556;37.816;2022-11-15T16:20:30;9.73;;;3.47;;
62654;SDS011;48717;55.556;37.816;2022-11-15T16:23:00;11.43;;;4.72;;
62654;SDS011;48717;55.556;37.816;2022-11-15T16:28:21;11.07;;;4.13;;
62654;SDS011;48717;55.556;37.816;2022-11-15T16:30:49;10.18;;;4.00;;
62654;SDS011;48717;55.556;37.816;2022-11-15T16:33:25;9.88;;;4.55;;
62654;SDS011;48717;55.556;37.816;2022-11-15T16:35:52;12.75;;;4.20;;
62654;SDS011;48717;55.556;37.816;2022-11-15T16:38:19;8.10;;;4.18;;
62654;SDS011;48717;55.556;37.816;2022-11-15T16:40:47;10.82;;;4.15;;
62654;SDS011;48717;55.556;37.816;2022-11-15T16:43:15;10.20;;;4.88;;
62654;SDS011;48717;55.556;37.816;2022-11-15T16:45:42;13.07;;;4.97;;
62654;SDS011;48717;55.556;37.816;2022-11-15T16:48:23;11.52;;;4.90;;
62654;SDS011;48717;55.556;37.816;2022-11-15T16:50:55;13.55;;;4.93;;
62654;SDS011;48717;55.556;37.816;2022-11-15T16:53:26;17.02;;;5.07;;
62654;SDS011;48717;55.556;37.816;2022-11-15T16:55:54;12.25;;;4.75;;
62654;SDS011;48717;55.556;37.816;2022-11-15T16:58:22;15.85;;;5.80;;
62654;SDS011;48717;55.556;37.816;2022-11-15T17:00:54;11.85;;;5.57;;
62654;SDS011;48717;55.556;37.816;2022-11-15T17:03:23;13.25;;;5.80;;
62654;SDS011;48717;55.556;37.816;2022-11-15T17:05:50;20.60;;;7.22;;
62654;SDS011;48717;55.556;37.816;2022-11-15T17:08:18;14.70;;;6.35;;
62654;SDS011;48717;55.556;37.816;2022-11-15T17:10:47;10.63;;;5.28;;
62654;SDS011;48717;55.556;37.816;2022-11-15T17:13:18;18.20;;;7.25;;
62654;SDS011;48717;55.556;37.816;2022-11-15T17:15:45;15.98;;;7.28;;
62654;SDS011;48717;55.556;37.816;2022-11-15T17:18:12;15.55;;;7.03;;
62654;SDS011;48717;55.556;37.816;2022-11-15T17:20:41;13.93;;;5.78;;
62654;SDS011;48717;55.556;37.816;2022-11-15T17:23:11;17.50;;;6.10;;
62654;SDS011;48717;55.556;37.816;2022-11-15T17:25:40;9.48;;;4.85;;
62654;SDS011;48717;55.556;37.816;2022-11-15T17:28:08;14.02;;;5.72;;
62654;SDS011;48717;55.556;37.816;2022-11-15T17:30:35;15.73;;;6.03;;
62654;SDS011;48717;55.556;37.816;2022-11-15T17:33:03;13.57;;;5.43;;
62654;SDS011;48717;55.556;37.816;2022-11-15T17:35:30;20.00;;;8.85;;
62654;SDS011;48717;55.556;37.816;2022-11-15T17:37:58;29.63;;;11.85;;
62654;SDS011;48717;55.556;37.816;2022-11-15T17:40:25;16.65;;;7.85;;
62654;SDS011;48717;55.556;37.816;2022-11-15T17:42:53;16.67;;;5.60;;
62654;SDS011;48717;55.556;37.816;2022-11-15T17:45:21;16.83;;;6.70;;
62654;SDS011;48717;55.556;37.816;2022-11-15T17:47:50;12.63;;;5.63;;
62654;SDS011;48717;55.556;37.816;2022-11-15T17:50:19;26.80;;;12.82;;
62654;SDS011;48717;55.556;37.816;2022-11-15T17:52:46;20.52;;;9.05;;
62654;SDS011;48717;55.556;37.816;2022-11-15T17:55:13;17.80;;;6.82;;
62654;SDS011;48717;55.556;37.816;2022-11-15T17:57:42;17.00;;;6.13;;
62654;SDS011;48717;55.556;37.816;2022-11-15T18:00:11;13.10;;;5.82;;
62654;SDS011;48717;55.556;37.816;2022-11-15T18:02:48;17.83;;;5.45;;
62654;SDS011;48717;55.556;37.816;2022-11-15T18:05:24;16.92;;;5.78;;
62654;SDS011;48717;55.556;37.816;2022-11-15T18:07:52;17.85;;;6.38;;
62654;SDS011;48717;55.556;37.816;2022-11-15T18:10:19;18.00;;;6.13;;
62654;SDS011;48717;55.556;37.816;2022-11-15T18:12:47;12.55;;;6.05;;
62654;SDS011;48717;55.556;37.816;2022-11-15T18:15:14;14.05;;;5.78;;
62654;SDS011;48717;55.556;37.816;2022-11-15T18:17:43;15.43;;;5.38;;
62654;SDS011;48717;55.556;37.816;2022-11-15T18:20:12;20.10;;;6.40;;
62654;SDS011;48717;55.556;37.816;2022-11-15T18:22:46;11.02;;;5.18;;
62654;SDS011;48717;55.556;37.816;2022-11-15T18:25:20;25.80;;;10.95;;
62654;SDS011;48717;55.556;37.816;2022-11-15T18:27:49;34.58;;;10.35;;
62654;SDS011;48717;55.556;37.816;2022-11-15T18:30:24;17.08;;;7.40;;
62654;SDS011;48717;55.556;37.816;2022-11-15T18:32:53;16.77;;;7.30;;
62654;SDS011;48717;55.556;37.816;2022-11-15T18:35:21;14.35;;;6.47;;
62654;SDS011;48717;55.556;37.816;2022-11-15T18:37:51;12.88;;;5.15;;
62654;SDS011;48717;55.556;37.816;2022-11-15T18:40:21;15.57;;;5.93;;
62654;SDS011;48717;55.556;37.816;2022-11-15T18:42:51;24.92;;;7.30;;
62654;SDS011;48717;55.556;37.816;2022-11-15T18:45:21;15.23;;;5.68;;
62654;SDS011;48717;55.556;37.816;2022-11-15T18:48:00;17.67;;;6.28;;